sensor_id;sensor_type;location;lat;lon;timestamp;pressure;altitude;pressure_sealevel;temperature;humidity
73558;BME280;61829;53.286;10.434;2024-01-30T00:02:57;102516.66;;;4.98;80.52
73558;BME280;61829;53.286;10.434;2024-01-30T00:05:42;102525.31;;;5.01;81.31
73558;BME280;61829;53.286;10.434;2024-01-30T00:08:26;102516.34;;;5.02;81.18
73558;BME280;61829;53.286;10.434;2024-01-30T00:11:11;102517.94;;;5.05;80.56
73558;BME280;61829;53.286;10.434;2024-01-30T00:13:55;102522.22;;;5.07;81.19
73558;BME280;61829;53.286;10.434;2024-01-30T00:16:40;102520.41;;;5.08;80.67
73558;BME280;61829;53.286;10.434;2024-01-30T00:19:25;102515.16;;;5.06;80.95
73558;BME280;61829;53.286;10.434;2024-01-30T00:22:10;102509.94;;;5.05;80.61
73558;BME280;61829;53.286;10.434;2024-01-30T00:24:54;102511.97;;;5.01;80.75
73558;BME280;61829;53.286;10.434;2024-01-30T00:27:38;102515.59;;;5.00;81.28
73558;BME280;61829;53.286;10.434;2024-01-30T00:30:23;102520.16;;;4.98;80.89
73558;BME280;61829;53.286;10.434;2024-01-30T00:33:08;102515.16;;;4.93;81.73
73558;BME280;61829;53.286;10.434;2024-01-30T00:35:53;102513.25;;;4.95;81.31
73558;BME280;61829;53.286;10.434;2024-01-30T00:38:37;102511.22;;;4.99;81.11
73558;BME280;61829;53.286;10.434;2024-01-30T00:41:23;102507.91;;;4.95;81.37
73558;BME280;61829;53.286;10.434;2024-01-30T00:44:08;102509.69;;;4.95;81.70
73558;BME280;61829;53.286;10.434;2024-01-30T00:46:53;102500.63;;;4.98;81.59
73558;BME280;61829;53.286;10.434;2024-01-30T00:49:38;102496.34;;;4.95;81.71
73558;BME280;61829;53.286;10.434;2024-01-30T00:52:23;102508.97;;;4.93;81.64
73558;BME280;61829;53.286;10.434;2024-01-30T00:55:07;102505.53;;;4.91;81.85
73558;BME280;61829;53.286;10.434;2024-01-30T00:57:52;102502.75;;;4.92;82.30
73558;BME280;61829;53.286;10.434;2024-01-30T01:00:36;102501.06;;;4.91;82.51
73558;BME280;61829;53.286;10.434;2024-01-30T01:03:21;102501.81;;;4.93;82.05
73558;BME280;61829;53.286;10.434;2024-01-30T01:06:06;102510.44;;;4.97;82.29
73558;BME280;61829;53.286;10.434;2024-01-30T01:08:50;102511.22;;;4.99;82.20
73558;BME280;61829;53.286;10.434;2024-01-30T01:11:35;102508.31;;;5.02;83.19
73558;BME280;61829;53.286;10.434;2024-01-30T01:14:19;102514.44;;;5.04;82.37
73558;BME280;61829;53.286;10.434;2024-01-30T01:17:04;102502.53;;;5.08;81.93
73558;BME280;61829;53.286;10.434;2024-01-30T01:19:48;102502.44;;;5.10;82.38
73558;BME280;61829;53.286;10.434;2024-01-30T01:22:33;102500.72;;;5.09;81.74
73558;BME280;61829;53.286;10.434;2024-01-30T01:25:18;102491.63;;;5.11;82.03
73558;BME280;61829;53.286;10.434;2024-01-30T01:28:03;102495.91;;;5.14;82.12
73558;BME280;61829;53.286;10.434;2024-01-30T01:30:48;102496.66;;;5.16;82.61
73558;BME280;61829;53.286;10.434;2024-01-30T01:33:33;102485.75;;;5.19;82.55
73558;BME280;61829;53.286;10.434;2024-01-30T01:36:18;102491.19;;;5.17;82.51
73558;BME280;61829;53.286;10.434;2024-01-30T01:39:03;102494.63;;;5.20;82.07
73558;BME280;61829;53.286;10.434;2024-01-30T01:41:50;102490.13;;;5.20;82.26
73558;BME280;61829;53.286;10.434;2024-01-30T01:44:34;102495.25;;;5.23;81.69
73558;BME280;61829;53.286;10.434;2024-01-30T01:47:18;102486.38;;;5.23;82.10
73558;BME280;61829;53.286;10.434;2024-01-30T01:50:03;102488.97;;;5.24;82.40
73558;BME280;61829;53.286;10.434;2024-01-30T01:52:48;102491.63;;;5.24;82.16
73558;BME280;61829;53.286;10.434;2024-01-30T01:55:34;102489.91;;;5.23;82.63
73558;BME280;61829;53.286;10.434;2024-01-30T01:58:19;102488.22;;;5.22;82.17
73558;BME280;61829;53.286;10.434;2024-01-30T02:01:05;102477.63;;;5.21;81.84
73558;BME280;61829;53.286;10.434;2024-01-30T02:03:50;102480.41;;;5.19;81.95
73558;BME280;61829;53.286;10.434;2024-01-30T02:06:34;102477.00;;;5.17;81.68
73558;BME280;61829;53.286;10.434;2024-01-30T02:09:19;102479.88;;;5.14;82.86
73558;BME280;61829;53.286;10.434;2024-01-30T02:12:04;102476.44;;;5.12;82.15
73558;BME280;61829;53.286;10.434;2024-01-30T02:14:51;102468.66;;;5.09;81.97
73558;BME280;61829;53.286;10.434;2024-01-30T02:17:38;102465.25;;;5.07;82.93
73558;BME280;61829;53.286;10.434;2024-01-30T02:20:24;102468.88;;;5.06;83.31
73558;BME280;61829;53.286;10.434;2024-01-30T02:23:10;102469.72;;;5.06;83.09
73558;BME280;61829;53.286;10.434;2024-01-30T02:25:59;102466.75;;;5.11;82.46
73558;BME280;61829;53.286;10.434;2024-01-30T02:28:44;102460.41;;;5.12;83.01
73558;BME280;61829;53.286;10.434;2024-01-30T02:31:28;102457.53;;;5.15;83.19
73558;BME280;61829;53.286;10.434;2024-01-30T02:34:13;102457.44;;;5.16;83.52
73558;BME280;61829;53.286;10.434;2024-01-30T02:36:58;102454.53;;;5.20;83.23
73558;BME280;61829;53.286;10.434;2024-01-30T02:39:43;102459.88;;;5.20;83.01
73558;BME280;61829;53.286;10.434;2024-01-30T02:42:28;102453.56;;;5.21;83.38
73558;BME280;61829;53.286;10.434;2024-01-30T02:45:13;102458.06;;;5.20;83.37
73558;BME280;61829;53.286;10.434;2024-01-30T02:47:57;102451.03;;;5.19;83.88
73558;BME280;61829;53.286;10.434;2024-01-30T02:50:42;102448.22;;;5.21;83.64
73558;BME280;61829;53.286;10.434;2024-01-30T02:53:26;102448.97;;;5.23;83.20
73558;BME280;61829;53.286;10.434;2024-01-30T02:56:16;102450.69;;;5.24;84.07
73558;BME280;61829;53.286;10.434;2024-01-30T02:59:01;102447.91;;;5.25;84.54
73558;BME280;61829;53.286;10.434;2024-01-30T03:01:45;102436.38;;;5.25;83.70
73558;BME280;61829;53.286;10.434;2024-01-30T03:04:30;102440.84;;;5.24;83.81
73558;BME280;61829;53.286;10.434;2024-01-30T03:07:15;102446.06;;;5.26;84.17
73558;BME280;61829;53.286;10.434;2024-01-30T03:09:59;102437.97;;;5.27;84.57
73558;BME280;61829;53.286;10.434;2024-01-30T03:12:44;102432.63;;;5.27;84.64
73558;BME280;61829;53.286;10.434;2024-01-30T03:15:28;102434.22;;;5.30;83.99
73558;BME280;61829;53.286;10.434;2024-01-30T03:18:12;102432.50;;;5.29;83.94
73558;BME280;61829;53.286;10.434;2024-01-30T03:20:57;102433.34;;;5.29;84.08
73558;BME280;61829;53.286;10.434;2024-01-30T03:23:41;102427.16;;;5.29;84.84
73558;BME280;61829;53.286;10.434;2024-01-30T03:26:25;102428.00;;;5.29;84.59
73558;BME280;61829;53.286;10.434;2024-01-30T03:29:10;102427.03;;;5.30;84.47
73558;BME280;61829;53.286;10.434;2024-01-30T03:31:55;102431.41;;;5.31;84.54
73558;BME280;61829;53.286;10.434;2024-01-30T03:34:39;102420.63;;;5.33;84.46
73558;BME280;61829;53.286;10.434;2024-01-30T03:37:24;102420.41;;;5.36;84.64
73558;BME280;61829;53.286;10.434;2024-01-30T03:40:09;102414.22;;;5.35;85.36
73558;BME280;61829;53.286;10.434;2024-01-30T03:42:54;102416.88;;;5.35;84.57
73558;BME280;61829;53.286;10.434;2024-01-30T03:45:38;102415.16;;;5.34;84.92
73558;BME280;61829;53.286;10.434;2024-01-30T03:48:23;102407.97;;;5.35;84.93
73558;BME280;61829;53.286;10.434;2024-01-30T03:51:08;102405.31;;;5.35;85.19
73558;BME280;61829;53.286;10.434;2024-01-30T03:53:54;102407.97;;;5.35;85.45
73558;BME280;61829;53.286;10.434;2024-01-30T03:56:38;102408.63;;;5.38;85.25
73558;BME280;61829;53.286;10.434;2024-01-30T03:59:23;102412.16;;;5.39;85.60
73558;BME280;61829;53.286;10.434;2024-01-30T04:02:12;102409.34;;;5.40;85.24
73558;BME280;61829;53.286;10.434;2024-01-30T04:04:57;102408.41;;;5.42;85.95
73558;BME280;61829;53.286;10.434;2024-01-30T04:07:42;102417.19;;;5.44;85.82
73558;BME280;61829;53.286;10.434;2024-01-30T04:10:27;102410.84;;;5.45;85.56
73558;BME280;61829;53.286;10.434;2024-01-30T04:13:30;102407.19;;;5.46;85.52
73558;BME280;61829;53.286;10.434;2024-01-30T04:16:22;102413.31;;;5.48;85.60
73558;BME280;61829;53.286;10.434;2024-01-30T04:19:08;102401.75;;;5.47;86.08
73558;BME280;61829;53.286;10.434;2024-01-30T04:21:53;102408.81;;;5.48;85.33
73558;BME280;61829;53.286;10.434;2024-01-30T04:24:37;102408.81;;;5.48;85.22
73558;BME280;61829;53.286;10.434;2024-01-30T04:27:22;102402.50;;;5.49;85.75
73558;BME280;61829;53.286;10.434;2024-01-30T04:30:07;102408.81;;;5.48;85.71
73558;BME280;61829;53.286;10.434;2024-01-30T04:32:52;102393.97;;;5.44;85.96
73558;BME280;61829;53.286;10.434;2024-01-30T04:35:37;102403.91;;;5.42;85.67
73558;BME280;61829;53.286;10.434;2024-01-30T04:38:22;102405.59;;;5.43;84.87
73558;BME280;61829;53.286;10.434;2024-01-30T04:41:07;102407.66;;;5.39;86.11
73558;BME280;61829;53.286;10.434;2024-01-30T04:43:51;102400.63;;;5.38;85.52
73558;BME280;61829;53.286;10.434;2024-01-30T04:46:36;102406.06;;;5.37;85.57
73558;BME280;61829;53.286;10.434;2024-01-30T04:49:21;102408.75;;;5.37;85.64
73558;BME280;61829;53.286;10.434;2024-01-30T04:52:06;102410.47;;;5.38;86.15
73558;BME280;61829;53.286;10.434;2024-01-30T04:54:51;102399.63;;;5.39;86.10
73558;BME280;61829;53.286;10.434;2024-01-30T04:57:35;102399.53;;;5.41;86.12
73558;BME280;61829;53.286;10.434;2024-01-30T05:00:20;102398.66;;;5.40;86.24
73558;BME280;61829;53.286;10.434;2024-01-30T05:03:04;102399.53;;;5.41;86.28
73558;BME280;61829;53.286;10.434;2024-01-30T05:05:49;102411.09;;;5.42;86.16
73558;BME280;61829;53.286;10.434;2024-01-30T05:08:33;102404.13;;;5.39;86.45
73558;BME280;61829;53.286;10.434;2024-01-30T05:11:21;102399.78;;;5.38;86.52
73558;BME280;61829;53.286;10.434;2024-01-30T05:14:05;102405.22;;;5.36;86.85
73558;BME280;61829;53.286;10.434;2024-01-30T05:16:50;102402.63;;;5.35;86.62
73558;BME280;61829;53.286;10.434;2024-01-30T05:19:35;102405.44;;;5.33;86.87
73558;BME280;61829;53.286;10.434;2024-01-30T05:22:20;102412.72;;;5.31;86.60
73558;BME280;61829;53.286;10.434;2024-01-30T05:25:05;102406.75;;;5.28;86.67
73558;BME280;61829;53.286;10.434;2024-01-30T05:27:50;102406.13;;;5.24;87.19
73558;BME280;61829;53.286;10.434;2024-01-30T05:30:34;102417.03;;;5.21;87.51
73558;BME280;61829;53.286;10.434;2024-01-30T05:33:19;102411.03;;;5.17;86.86
73558;BME280;61829;53.286;10.434;2024-01-30T05:36:04;102404.22;;;5.13;86.92
73558;BME280;61829;53.286;10.434;2024-01-30T05:38:48;102401.84;;;5.09;87.15
73558;BME280;61829;53.286;10.434;2024-01-30T05:41:33;102400.47;;;5.03;86.59
73558;BME280;61829;53.286;10.434;2024-01-30T05:44:18;102391.84;;;5.00;87.35
73558;BME280;61829;53.286;10.434;2024-01-30T05:47:02;102396.66;;;4.94;87.30
73558;BME280;61829;53.286;10.434;2024-01-30T05:49:47;102397.00;;;4.90;87.85
73558;BME280;61829;53.286;10.434;2024-01-30T05:52:32;102392.72;;;4.87;87.93
73558;BME280;61829;53.286;10.434;2024-01-30T05:55:16;102393.91;;;4.83;87.47
73558;BME280;61829;53.286;10.434;2024-01-30T05:58:00;102385.34;;;4.78;88.38
73558;BME280;61829;53.286;10.434;2024-01-30T06:04:23;102387.59;;;4.71;88.20
73558;BME280;61829;53.286;10.434;2024-01-30T06:07:08;102390.41;;;4.70;89.16
73558;BME280;61829;53.286;10.434;2024-01-30T06:09:53;102380.66;;;4.69;88.60
73558;BME280;61829;53.286;10.434;2024-01-30T06:12:37;102385.25;;;4.67;89.48
73558;BME280;61829;53.286;10.434;2024-01-30T06:15:22;102379.91;;;4.67;89.44
73558;BME280;61829;53.286;10.434;2024-01-30T06:18:06;102381.84;;;4.65;89.15
73558;BME280;61829;53.286;10.434;2024-01-30T06:20:51;102373.94;;;4.63;89.47
73558;BME280;61829;53.286;10.434;2024-01-30T06:23:35;102375.13;;;4.59;89.28
73558;BME280;61829;53.286;10.434;2024-01-30T06:26:19;102373.53;;;4.57;89.63
73558;BME280;61829;53.286;10.434;2024-01-30T06:29:04;102376.41;;;4.54;89.86
73558;BME280;61829;53.286;10.434;2024-01-30T06:31:48;102375.56;;;4.53;90.06
73558;BME280;61829;53.286;10.434;2024-01-30T06:34:42;102381.75;;;4.54;90.39
73558;BME280;61829;53.286;10.434;2024-01-30T06:37:55;102376.63;;;4.50;89.93
73558;BME280;61829;53.286;10.434;2024-01-30T06:40:41;102356.22;;;4.49;90.60
73558;BME280;61829;53.286;10.434;2024-01-30T06:43:25;102365.19;;;4.48;89.85
73558;BME280;61829;53.286;10.434;2024-01-30T06:46:10;102354.84;;;4.44;90.29
73558;BME280;61829;53.286;10.434;2024-01-30T06:48:54;102356.66;;;4.43;90.03
73558;BME280;61829;53.286;10.434;2024-01-30T06:51:38;102354.97;;;4.42;90.79
73558;BME280;61829;53.286;10.434;2024-01-30T06:54:23;102354.97;;;4.42;90.50
73558;BME280;61829;53.286;10.434;2024-01-30T06:57:07;102355.81;;;4.43;91.04
73558;BME280;61829;53.286;10.434;2024-01-30T06:59:55;102352.91;;;4.46;91.52
73558;BME280;61829;53.286;10.434;2024-01-30T07:02:40;102350.25;;;4.46;91.28
73558;BME280;61829;53.286;10.434;2024-01-30T07:05:25;102354.53;;;4.48;91.31
73558;BME280;61829;53.286;10.434;2024-01-30T07:08:09;102348.13;;;4.51;90.96
73558;BME280;61829;53.286;10.434;2024-01-30T07:10:54;102358.56;;;4.54;91.54
73558;BME280;61829;53.286;10.434;2024-01-30T07:13:45;102355.78;;;4.56;91.77
73558;BME280;61829;53.286;10.434;2024-01-30T07:16:30;102353.88;;;4.58;91.59
73558;BME280;61829;53.286;10.434;2024-01-30T07:19:15;102351.94;;;4.60;90.79
73558;BME280;61829;53.286;10.434;2024-01-30T07:21:59;102357.16;;;4.61;91.66
73558;BME280;61829;53.286;10.434;2024-01-30T07:24:43;102353.44;;;4.64;91.79
73558;BME280;61829;53.286;10.434;2024-01-30T07:27:33;102348.97;;;4.64;91.17
73558;BME280;61829;53.286;10.434;2024-01-30T07:30:18;102354.09;;;4.67;90.83
73558;BME280;61829;53.286;10.434;2024-01-30T07:33:03;102359.44;;;4.67;91.28
73558;BME280;61829;53.286;10.434;2024-01-30T07:35:47;102357.38;;;4.71;91.34
73558;BME280;61829;53.286;10.434;2024-01-30T07:38:32;102360.69;;;4.75;90.93
73558;BME280;61829;53.286;10.434;2024-01-30T07:41:17;102360.38;;;4.79;91.82
73558;BME280;61829;53.286;10.434;2024-01-30T07:44:02;102358.31;;;4.83;91.38
73558;BME280;61829;53.286;10.434;2024-01-30T07:47:25;102355.22;;;4.89;91.45
73558;BME280;61829;53.286;10.434;2024-01-30T07:50:10;102349.41;;;4.95;91.32
73558;BME280;61829;53.286;10.434;2024-01-30T07:53:00;102342.56;;;5.04;91.78
73558;BME280;61829;53.286;10.434;2024-01-30T07:55:44;102344.56;;;5.13;91.61
73558;BME280;61829;53.286;10.434;2024-01-30T07:58:31;102345.72;;;5.22;90.77
73558;BME280;61829;53.286;10.434;2024-01-30T08:01:16;102351.47;;;5.28;91.00
73558;BME280;61829;53.286;10.434;2024-01-30T08:04:01;102350.06;;;5.35;90.39
73558;BME280;61829;53.286;10.434;2024-01-30T08:06:46;102345.94;;;5.43;90.85
73558;BME280;61829;53.286;10.434;2024-01-30T08:09:31;102346.13;;;5.52;90.29
73558;BME280;61829;53.286;10.434;2024-01-30T08:12:16;102342.16;;;5.58;89.83
73558;BME280;61829;53.286;10.434;2024-01-30T08:15:02;102346.78;;;5.67;90.15
73558;BME280;61829;53.286;10.434;2024-01-30T08:17:47;102347.06;;;5.75;89.63
73558;BME280;61829;53.286;10.434;2024-01-30T08:20:32;102342.94;;;5.82;89.67
73558;BME280;61829;53.286;10.434;2024-01-30T08:23:16;102338.84;;;5.90;89.60
73558;BME280;61829;53.286;10.434;2024-01-30T08:26:01;102334.75;;;5.97;88.98
73558;BME280;61829;53.286;10.434;2024-01-30T08:28:46;102341.34;;;6.04;88.42
73558;BME280;61829;53.286;10.434;2024-01-30T08:31:30;102336.38;;;6.11;88.52
73558;BME280;61829;53.286;10.434;2024-01-30T08:34:15;102335.03;;;6.16;88.38
73558;BME280;61829;53.286;10.434;2024-01-30T08:37:00;102337.38;;;6.21;87.31
73558;BME280;61829;53.286;10.434;2024-01-30T08:39:45;102328.63;;;6.30;87.67
73558;BME280;61829;53.286;10.434;2024-01-30T08:42:30;102331.91;;;6.34;87.27
73558;BME280;61829;53.286;10.434;2024-01-30T08:45:14;102320.84;;;6.38;86.62
73558;BME280;61829;53.286;10.434;2024-01-30T08:47:59;102327.28;;;6.47;87.02
73558;BME280;61829;53.286;10.434;2024-01-30T08:50:44;102332.16;;;6.53;86.61
73558;BME280;61829;53.286;10.434;2024-01-30T08:53:28;102336.31;;;6.57;86.43
73558;BME280;61829;53.286;10.434;2024-01-30T08:56:12;102337.53;;;6.64;85.67
73558;BME280;61829;53.286;10.434;2024-01-30T08:58:58;102337.28;;;6.67;85.84
73558;BME280;61829;53.286;10.434;2024-01-30T09:01:42;102333.41;;;6.71;85.42
73558;BME280;61829;53.286;10.434;2024-01-30T09:04:27;102338.38;;;6.76;84.80
73558;BME280;61829;53.286;10.434;2024-01-30T09:07:11;102341.44;;;6.83;84.90
73558;BME280;61829;53.286;10.434;2024-01-30T09:09:57;102342.88;;;6.87;84.58
73558;BME280;61829;53.286;10.434;2024-01-30T09:12:42;102330.94;;;6.91;84.38
73558;BME280;61829;53.286;10.434;2024-01-30T09:15:27;102330.44;;;6.97;84.13
73558;BME280;61829;53.286;10.434;2024-01-30T09:18:11;102317.53;;;7.02;83.94
73558;BME280;61829;53.286;10.434;2024-01-30T09:20:56;102314.34;;;7.08;83.41
73558;BME280;61829;53.286;10.434;2024-01-30T09:23:40;102308.31;;;7.16;83.73
73558;BME280;61829;53.286;10.434;2024-01-30T09:26:25;102317.69;;;7.22;83.18
73558;BME280;61829;53.286;10.434;2024-01-30T09:29:09;102322.84;;;7.25;82.88
73558;BME280;61829;53.286;10.434;2024-01-30T09:31:54;102323.16;;;7.31;82.80
73558;BME280;61829;53.286;10.434;2024-01-30T09:34:38;102319.59;;;7.42;82.76
73558;BME280;61829;53.286;10.434;2024-01-30T09:37:24;102326.88;;;7.51;82.35
73558;BME280;61829;53.286;10.434;2024-01-30T09:40:09;102322.69;;;7.58;82.12
73558;BME280;61829;53.286;10.434;2024-01-30T09:42:53;102314.00;;;7.66;81.93
73558;BME280;61829;53.286;10.434;2024-01-30T09:45:39;102312.38;;;7.75;81.54
73558;BME280;61829;53.286;10.434;2024-01-30T09:48:26;102315.25;;;7.83;81.32
73558;BME280;61829;53.286;10.434;2024-01-30T09:51:14;102309.38;;;7.89;81.00
73558;BME280;61829;53.286;10.434;2024-01-30T09:53:59;102307.16;;;7.94;80.89
73558;BME280;61829;53.286;10.434;2024-01-30T09:56:43;102310.16;;;8.01;80.63
73558;BME280;61829;53.286;10.434;2024-01-30T09:59:28;102311.34;;;8.08;80.29
73558;BME280;61829;53.286;10.434;2024-01-30T10:02:12;102315.31;;;8.14;80.46
73558;BME280;61829;53.286;10.434;2024-01-30T10:04:57;102308.44;;;8.21;80.12
73558;BME280;61829;53.286;10.434;2024-01-30T10:07:52;102308.75;;;8.27;79.91
73558;BME280;61829;53.286;10.434;2024-01-30T10:10:37;102312.75;;;8.33;79.98
73558;BME280;61829;53.286;10.434;2024-01-30T10:13:22;102312.97;;;8.41;79.26
73558;BME280;61829;53.286;10.434;2024-01-30T10:16:07;102319.66;;;8.47;79.38
73558;BME280;61829;53.286;10.434;2024-01-30T10:18:52;102313.72;;;8.53;78.67
73558;BME280;61829;53.286;10.434;2024-01-30T10:21:36;102314.19;;;8.58;78.84
73558;BME280;61829;53.286;10.434;2024-01-30T10:24:25;102304.56;;;8.65;78.81
73558;BME280;61829;53.286;10.434;2024-01-30T10:27:11;102304.03;;;8.71;78.55
73558;BME280;61829;53.286;10.434;2024-01-30T10:29:55;102300.81;;;8.77;78.06
73558;BME280;61829;53.286;10.434;2024-01-30T10:32:40;102306.06;;;8.89;77.66
73558;BME280;61829;53.286;10.434;2024-01-30T10:35:26;102292.66;;;8.98;77.25
73558;BME280;61829;53.286;10.434;2024-01-30T10:38:13;102289.84;;;9.10;77.15
73558;BME280;61829;53.286;10.434;2024-01-30T10:41:01;102292.53;;;9.19;76.50
73558;BME280;61829;53.286;10.434;2024-01-30T10:43:53;102287.19;;;9.29;76.40
73558;BME280;61829;53.286;10.434;2024-01-30T10:46:42;102279.25;;;9.37;76.28
73558;BME280;61829;53.286;10.434;2024-01-30T10:49:30;102280.38;;;9.44;75.46
73558;BME280;61829;53.286;10.434;2024-01-30T10:52:16;102276.13;;;9.52;75.42
73558;BME280;61829;53.286;10.434;2024-01-30T10:55:04;102283.22;;;9.62;75.07
73558;BME280;61829;53.286;10.434;2024-01-30T10:57:49;102267.19;;;9.71;74.69
73558;BME280;61829;53.286;10.434;2024-01-30T11:00:38;102274.25;;;9.81;74.69
73558;BME280;61829;53.286;10.434;2024-01-30T11:03:23;102269.16;;;9.88;74.51
73558;BME280;61829;53.286;10.434;2024-01-30T11:06:12;102263.03;;;9.96;74.34
73558;BME280;61829;53.286;10.434;2024-01-30T11:09:05;102268.41;;;10.05;74.12
73558;BME280;61829;53.286;10.434;2024-01-30T11:11:58;102269.50;;;10.12;73.68
73558;BME280;61829;53.286;10.434;2024-01-30T11:14:44;102265.38;;;10.18;73.72
73558;BME280;61829;53.286;10.434;2024-01-30T11:20:32;102264.50;;;10.37;73.22
73558;BME280;61829;53.286;10.434;2024-01-30T11:23:17;102263.75;;;10.45;73.07
73558;BME280;61829;53.286;10.434;2024-01-30T11:26:03;102259.16;;;10.55;73.29
73558;BME280;61829;53.286;10.434;2024-01-30T11:28:52;102259.56;;;10.60;73.02
73558;BME280;61829;53.286;10.434;2024-01-30T11:31:38;102257.97;;;10.67;72.56
73558;BME280;61829;53.286;10.434;2024-01-30T11:34:22;102259.06;;;10.74;72.54
73558;BME280;61829;53.286;10.434;2024-01-30T11:37:09;102259.47;;;10.79;72.24
73558;BME280;61829;53.286;10.434;2024-01-30T11:39:56;102257.00;;;10.86;72.55
73558;BME280;61829;53.286;10.434;2024-01-30T11:42:43;102255.72;;;10.90;72.11
73558;BME280;61829;53.286;10.434;2024-01-30T11:45:28;102255.22;;;10.95;72.27
73558;BME280;61829;53.286;10.434;2024-01-30T11:48:34;102258.19;;;11.01;71.81
73558;BME280;61829;53.286;10.434;2024-01-30T11:51:19;102249.78;;;11.05;71.53
73558;BME280;61829;53.286;10.434;2024-01-30T11:54:04;102250.31;;;11.08;72.29
73558;BME280;61829;53.286;10.434;2024-01-30T11:56:49;102249.88;;;11.13;72.26
73558;BME280;61829;53.286;10.434;2024-01-30T11:59:34;102252.78;;;11.19;71.62
73558;BME280;61829;53.286;10.434;2024-01-30T12:02:18;102253.31;;;11.23;71.25
73558;BME280;61829;53.286;10.434;2024-01-30T12:05:06;102251.19;;;11.27;71.65
73558;BME280;61829;53.286;10.434;2024-01-30T12:07:51;102242.78;;;11.30;71.60
73558;BME280;61829;53.286;10.434;2024-01-30T12:10:36;102241.44;;;11.34;71.66
73558;BME280;61829;53.286;10.434;2024-01-30T12:13:20;102241.84;;;11.39;71.71
73558;BME280;61829;53.286;10.434;2024-01-30T12:16:06;102240.50;;;11.43;71.63
73558;BME280;61829;53.286;10.434;2024-01-30T12:18:59;102234.78;;;11.46;71.89
73558;BME280;61829;53.286;10.434;2024-01-30T12:21:44;102234.47;;;11.49;71.69
73558;BME280;61829;53.286;10.434;2024-01-30T12:24:29;102223.22;;;11.54;71.39
73558;BME280;61829;53.286;10.434;2024-01-30T12:27:15;102213.81;;;11.58;71.41
73558;BME280;61829;53.286;10.434;2024-01-30T12:29:59;102224.31;;;11.61;71.61
73558;BME280;61829;53.286;10.434;2024-01-30T12:32:46;102226.38;;;11.67;71.31
73558;BME280;61829;53.286;10.434;2024-01-30T12:35:31;102228.22;;;11.66;71.27
73558;BME280;61829;53.286;10.434;2024-01-30T12:38:15;102231.97;;;11.74;71.54
73558;BME280;61829;53.286;10.434;2024-01-30T12:41:00;102233.19;;;11.79;71.20
73558;BME280;61829;53.286;10.434;2024-01-30T12:43:45;102222.78;;;11.84;70.92
73558;BME280;61829;53.286;10.434;2024-01-30T12:46:34;102229.03;;;11.85;70.42
73558;BME280;61829;53.286;10.434;2024-01-30T12:49:19;102218.22;;;11.85;70.12
73558;BME280;61829;53.286;10.434;2024-01-30T12:52:04;102222.41;;;11.79;70.55
73558;BME280;61829;53.286;10.434;2024-01-30T12:54:49;102213.13;;;11.82;70.19
73558;BME280;61829;53.286;10.434;2024-01-30T12:57:34;102203.16;;;11.82;70.76
73558;BME280;61829;53.286;10.434;2024-01-30T13:00:19;102219.09;;;11.85;70.52
73558;BME280;61829;53.286;10.434;2024-01-30T13:03:04;102218.09;;;11.86;70.58
73558;BME280;61829;53.286;10.434;2024-01-30T13:05:49;102219.78;;;11.87;70.66
73558;BME280;61829;53.286;10.434;2024-01-30T13:08:33;102212.38;;;11.89;70.61
73558;BME280;61829;53.286;10.434;2024-01-30T13:11:18;102223.31;;;11.88;70.70
73558;BME280;61829;53.286;10.434;2024-01-30T13:14:03;102221.78;;;11.85;70.67
73558;BME280;61829;53.286;10.434;2024-01-30T13:16:48;102216.69;;;11.82;70.86
73558;BME280;61829;53.286;10.434;2024-01-30T13:19:33;102218.69;;;11.80;70.64
73558;BME280;61829;53.286;10.434;2024-01-30T13:22:17;102227.66;;;11.81;71.01
73558;BME280;61829;53.286;10.434;2024-01-30T13:25:02;102236.75;;;11.80;70.85
73558;BME280;61829;53.286;10.434;2024-01-30T13:27:47;102237.91;;;11.77;71.08
73558;BME280;61829;53.286;10.434;2024-01-30T13:30:31;102239.25;;;11.73;71.38
73558;BME280;61829;53.286;10.434;2024-01-30T13:33:16;102241.41;;;11.69;71.44
73558;BME280;61829;53.286;10.434;2024-01-30T13:36:00;102237.84;;;11.69;71.27
73558;BME280;61829;53.286;10.434;2024-01-30T13:38:46;102232.63;;;11.67;71.87
73558;BME280;61829;53.286;10.434;2024-01-30T13:41:30;102231.91;;;11.65;71.95
73558;BME280;61829;53.286;10.434;2024-01-30T13:44:16;102222.28;;;11.63;72.09
73558;BME280;61829;53.286;10.434;2024-01-30T13:47:05;102230.56;;;11.61;71.87
73558;BME280;61829;53.286;10.434;2024-01-30T13:49:50;102233.25;;;11.61;72.37
73558;BME280;61829;53.286;10.434;2024-01-30T13:52:36;102226.00;;;11.62;72.35
73558;BME280;61829;53.286;10.434;2024-01-30T13:55:21;102225.16;;;11.61;72.15
73558;BME280;61829;53.286;10.434;2024-01-30T13:58:06;102230.56;;;11.61;72.81
73558;BME280;61829;53.286;10.434;2024-01-30T14:00:51;102222.59;;;11.60;72.37
73558;BME280;61829;53.286;10.434;2024-01-30T14:03:36;102224.44;;;11.59;72.47
73558;BME280;61829;53.286;10.434;2024-01-30T14:06:20;102225.16;;;11.61;72.78
73558;BME280;61829;53.286;10.434;2024-01-30T14:09:05;102228.00;;;11.60;72.88
73558;BME280;61829;53.286;10.434;2024-01-30T14:11:50;102224.63;;;11.58;73.20
73558;BME280;61829;53.286;10.434;2024-01-30T14:14:34;102224.63;;;11.58;73.56
73558;BME280;61829;53.286;10.434;2024-01-30T14:17:19;102227.16;;;11.59;73.28
73558;BME280;61829;53.286;10.434;2024-01-30T14:20:04;102224.44;;;11.59;73.45
73558;BME280;61829;53.286;10.434;2024-01-30T14:22:49;102229.72;;;11.61;73.49
73558;BME280;61829;53.286;10.434;2024-01-30T14:25:34;102224.13;;;11.62;73.58
73558;BME280;61829;53.286;10.434;2024-01-30T14:28:18;102227.84;;;11.61;73.55
73558;BME280;61829;53.286;10.434;2024-01-30T14:31:03;102216.88;;;11.63;73.39